Time;durP1;ratioP1;P1;durP2;ratioP2;P2;SDS_P1;SDS_P2;PMS_P1;PMS_P2;Temp;Humidity;BMP_temperature;BMP_pressure;BME280_temperature;BME280_humidity;BME280_pressure;Samples;Min_cycle;Max_cycle;Signal;HPM_P1;HPM_P2
2022/06/07 00:01:10;;;;;;;;;;;;;;;-142.75;100.00;76863.59;5034067;28;19917;-67
2022/06/07 00:03:35;;;;;;;;;;;;;;;-142.75;100.00;76853.75;5016344;28;20371;-67
2022/06/07 00:06:01;;;;;;;;;;;;;;;-142.75;100.00;76845.88;5034176;28;20454;-67
2022/06/07 00:08:27;;;;;;;;;;;;;;;-142.75;100.00;76838.00;5033619;28;20046;-67
2022/06/07 00:10:52;;;;;;;;;;;;;;;-142.75;100.00;76834.06;5033951;28;19917;-67
2022/06/07 00:13:18;;;;;;;;;;;;;;;-142.75;100.00;76838.00;5034033;28;19921;-67
2022/06/07 00:15:43;;;;;;;;;;;;;;;-142.75;100.00;76832.09;5033751;28;19921;-67
2022/06/07 00:18:10;;;;;;;;;;;;;;;-142.75;100.00;76836.03;5033548;28;20408;-68
2022/06/07 00:20:36;;;;;;;;;;;;;;;-142.75;100.00;76839.97;5033675;28;19917;-67
2022/06/07 00:23:03;;;;;;;;;;;;;;;-142.75;100.00;76838.00;5033848;28;20383;-66
2022/06/07 00:25:28;;;;;;;;;;;;;;;-142.75;100.00;76824.22;5033623;28;19921;-68
2022/06/07 00:27:53;;;;;;;;;;;;;;;-142.75;100.00;76824.22;5015626;28;20008;-67
2022/06/07 00:30:18;;;;;;;;;;;;;;;-142.75;100.00;76830.13;5033533;28;20429;-69
2022/06/07 00:32:44;;;;;;;;;;;;;;;-142.75;100.00;76826.19;5033668;28;20386;-67
2022/06/07 00:35:10;;;;;;;;;;;;;;;-142.75;100.00;76830.13;5033643;28;20309;-67
2022/06/07 00:37:35;;;;;;;;;;;;;;;-142.75;100.00;76838.00;5033399;28;19944;-67
2022/06/07 00:40:01;;;;;;;;;;;;;;;-142.75;100.00;76834.06;5033149;28;19917;-67
2022/06/07 00:42:26;;;;;;;;;;;;;;;-142.75;100.00;76828.16;5033238;28;19924;-67
2022/06/07 00:44:51;;;;;;;;;;;;;;;-142.75;100.00;76816.34;5033190;28;19960;-67
2022/06/07 00:47:23;;;;;;;;;;;;;;;-142.75;100.00;76830.13;5015456;28;19917;-67
2022/06/07 00:49:53;;;;;;;;;;;;;;;-142.75;100.00;76822.25;5032103;28;20367;-67
2022/06/07 00:52:20;;;;;;;;;;;;;;;-142.75;100.00;76826.19;5033175;28;20031;-67
2022/06/07 00:54:45;;;;;;;;;;;;;;;-142.75;100.00;76824.22;5015493;28;20344;-68
2022/06/07 00:57:11;;;;;;;;;;;;;;;-142.75;100.00;76838.00;5033029;28;20011;-67
2022/06/07 00:59:37;;;;;;;;;;;;;;;-142.75;100.00;76834.06;5032734;28;20039;-68
2022/06/07 01:02:02;;;;;;;;;;;;;;;-142.75;100.00;76834.06;5033086;28;19947;-69
2022/06/07 01:04:27;;;;;;;;;;;;;;;-142.75;100.00;76826.19;5015144;28;20083;-67
2022/06/07 01:12:24;;;;;;;;;;;;;;;-142.75;100.00;76826.19;5013543;28;20008;-67
2022/06/07 01:14:49;;;;;;;;;;;;;;;-142.75;100.00;76838.00;5013025;28;20363;-68
2022/06/07 01:17:14;;;;;;;;;;;;;;;-142.75;100.00;76836.03;4995415;28;19917;-67
2022/06/07 01:19:39;;;;;;;;;;;;;;;-142.75;100.00;76826.19;4995151;28;19972;-67
2022/06/07 01:22:05;;;;;;;;;;;;;;;-142.75;100.00;76830.13;5012861;28;20327;-67
2022/06/07 01:24:30;;;;;;;;;;;;;;;-142.75;100.00;76828.16;5012766;28;19929;-67
2022/06/07 01:26:55;;;;;;;;;;;;;;;-142.75;100.00;76826.19;5012677;28;19917;-67
2022/06/07 01:29:20;;;;;;;;;;;;;;;-142.75;100.00;76834.06;5012528;28;19925;-67
2022/06/07 01:31:47;;;;;;;;;;;;;;;-142.75;100.00;76838.00;5012722;28;19968;-68
2022/06/07 01:34:12;;;;;;;;;;;;;;;-142.75;100.00;76849.81;5012730;28;19921;-67
2022/06/07 01:36:37;;;;;;;;;;;;;;;-142.75;100.00;76839.97;5012609;28;19917;-68
2022/06/07 01:41:56;;;;;;;;;;;;;;;-142.75;100.00;76830.13;5032720;28;20038;-68
2022/06/07 01:44:22;;;;;;;;;;;;;;;-142.75;100.00;76828.16;5032171;28;20044;-68
2022/06/07 01:46:48;;;;;;;;;;;;;;;-142.75;100.00;76820.28;5032121;28;19917;-68
2022/06/07 01:49:14;;;;;;;;;;;;;;;-142.75;100.00;76816.34;5031704;28;19918;-66
2022/06/07 01:51:39;;;;;;;;;;;;;;;-142.75;100.00;76818.31;5032068;28;19924;-67
2022/06/07 01:54:05;;;;;;;;;;;;;;;-142.75;100.00;76822.25;5014347;28;19929;-66
2022/06/07 01:56:31;;;;;;;;;;;;;;;-142.75;100.00;76814.38;5032003;28;19947;-67
2022/06/07 01:58:57;;;;;;;;;;;;;;;-142.75;100.00;76820.28;5031742;28;21268;-67
2022/06/07 02:01:22;;;;;;;;;;;;;;;-142.75;100.00;76812.41;5031579;28;19916;-68
2022/06/07 02:03:48;;;;;;;;;;;;;;;-142.75;100.00;76816.34;5031848;28;20514;-66
2022/06/07 02:06:13;;;;;;;;;;;;;;;-142.75;100.00;76810.44;5031718;28;19941;-67
2022/06/07 02:08:40;;;;;;;;;;;;;;;-142.75;100.00;76808.50;5031390;28;19967;-67
2022/06/07 02:11:08;;;;;;;;;;;;;;;-142.75;100.00;76806.50;5031754;28;20000;-67
2022/06/07 02:13:33;;;;;;;;;;;;;;;-142.75;100.00;76808.50;5031615;28;19925;-67
2022/06/07 02:15:58;;;;;;;;;;;;;;;-142.75;100.00;76806.50;5031680;28;20052;-67
2022/06/07 02:18:24;;;;;;;;;;;;;;;-142.75;100.00;76802.56;5031325;28;20007;-67
2022/06/07 02:20:49;;;;;;;;;;;;;;;-142.75;100.00;76800.63;5031520;28;20317;-67
2022/06/07 02:23:14;;;;;;;;;;;;;;;-142.75;100.00;76798.66;5031548;28;20385;-67
2022/06/07 02:25:44;;;;;;;;;;;;;;;-142.75;100.00;76802.56;5013419;28;20403;-67
2022/06/07 02:28:11;;;;;;;;;;;;;;;-142.75;100.00;76802.56;5031095;28;19960;-68
2022/06/07 02:30:36;;;;;;;;;;;;;;;-142.75;100.00;76802.56;5031483;28;19971;-67
2022/06/07 02:33:01;;;;;;;;;;;;;;;-142.75;100.00;76798.66;5031380;28;20411;-67
2022/06/07 02:35:27;;;;;;;;;;;;;;;-142.75;100.00;76792.75;5031372;28;19917;-67
2022/06/07 02:37:53;;;;;;;;;;;;;;;-142.75;100.00;76788.81;5031008;28;19917;-64
2022/06/07 02:40:18;;;;;;;;;;;;;;;-142.75;100.00;76790.78;5031331;28;19924;-67
2022/06/07 02:42:43;;;;;;;;;;;;;;;-142.75;100.00;76792.75;5031344;28;20015;-67
2022/06/07 02:45:09;;;;;;;;;;;;;;;-142.75;100.00;76790.78;5013443;28;20004;-66
2022/06/07 02:47:34;;;;;;;;;;;;;;;-142.75;100.00;76782.91;5031184;28;19921;-67
2022/06/07 02:50:00;;;;;;;;;;;;;;;-142.75;100.00;76782.91;5030878;28;20306;-66
2022/06/07 02:52:25;;;;;;;;;;;;;;;-142.75;100.00;76794.69;5031106;28;19917;-67
2022/06/07 02:54:50;;;;;;;;;;;;;;;-142.75;100.00;76784.88;5031133;28;19924;-67
2022/06/07 02:57:15;;;;;;;;;;;;;;;-142.75;100.00;76778.97;5031011;28;19940;-67
2022/06/07 02:59:41;;;;;;;;;;;;;;;-142.75;100.00;76778.97;5030990;28;19917;-67
2022/06/07 03:02:06;;;;;;;;;;;;;;;-142.75;100.00;76771.09;5031327;28;20000;-66
2022/06/07 03:04:31;;;;;;;;;;;;;;;-142.75;100.00;76777.00;5030989;28;19928;-67
2022/06/07 03:06:56;;;;;;;;;;;;;;;-142.75;100.00;76771.09;5030939;28;20295;-66
2022/06/07 03:09:22;;;;;;;;;;;;;;;-142.75;100.00;76777.00;5030818;28;19944;-66
2022/06/07 03:11:47;;;;;;;;;;;;;;;-142.75;100.00;76777.00;5031235;28;19917;-65
2022/06/07 03:14:12;;;;;;;;;;;;;;;-142.75;100.00;76778.97;5035062;28;20293;-67
2022/06/07 03:16:37;;;;;;;;;;;;;;;-142.75;100.00;76782.91;5035075;28;19924;-67
2022/06/07 03:19:03;;;;;;;;;;;;;;;-142.75;100.00;76786.84;5034708;28;19924;-67
2022/06/07 03:21:28;;;;;;;;;;;;;;;-142.75;100.00;76792.75;5035010;28;20016;-66
2022/06/07 03:23:53;;;;;;;;;;;;;;;-142.75;100.00;76796.69;5034882;28;20283;-67
2022/06/07 03:26:19;;;;;;;;;;;;;;;-142.75;100.00;76798.66;5035281;28;20011;-67
2022/06/07 03:28:44;;;;;;;;;;;;;;;-142.75;100.00;76792.75;5034410;28;19921;-67
2022/06/07 03:31:12;;;;;;;;;;;;;;;-142.75;100.00;76800.63;5034743;28;20383;-67
2022/06/07 03:33:38;;;;;;;;;;;;;;;-142.75;100.00;76800.63;5034701;28;20421;-67
2022/06/07 03:36:13;;;;;;;;;;;;;;;-142.75;100.00;76804.53;5034685;28;19917;-67
2022/06/07 03:38:39;;;;;;;;;;;;;;;-142.75;100.00;76806.50;5034331;28;19925;-67
2022/06/07 03:41:05;;;;;;;;;;;;;;;-142.75;100.00;76810.44;5034578;28;20008;-67
2022/06/07 03:43:31;;;;;;;;;;;;;;;-142.75;100.00;76816.34;5034574;28;20039;-67
2022/06/07 03:46:05;;;;;;;;;;;;;;;-142.75;100.00;76814.38;5034298;28;19921;-67
2022/06/07 03:48:30;;;;;;;;;;;;;;;-142.75;100.00;76814.38;5034049;28;19924;-66
2022/06/07 03:50:55;;;;;;;;;;;;;;;-142.75;100.00;76814.38;5016692;28;19925;-66
2022/06/07 03:53:20;;;;;;;;;;;;;;;-142.75;100.00;76818.31;5034364;28;20291;-67
2022/06/07 03:55:47;;;;;;;;;;;;;;;-142.75;100.00;76818.31;5034358;28;19921;-67
2022/06/07 03:58:13;;;;;;;;;;;;;;;-142.75;100.00;76814.38;5033900;28;19983;-68
2022/06/07 04:00:38;;;;;;;;;;;;;;;-142.75;100.00;76818.31;5016491;28;19988;-67
2022/06/07 04:03:03;;;;;;;;;;;;;;;-142.75;100.00;76818.31;5034060;28;19950;-67
2022/06/07 04:05:28;;;;;;;;;;;;;;;-142.75;100.00;76816.34;5034080;28;19931;-66
2022/06/07 04:08:12;;;;;;;;;;;;;;;-142.75;100.00;76818.31;5041713;23;20029;-68
2022/06/07 04:10:51;;;;;;;;;;;;;;;-142.75;100.00;76810.44;5014839;28;19924;-68
2022/06/07 04:13:16;;;;;;;;;;;;;;;-142.75;100.00;76818.31;5033853;28;19921;-69
2022/06/07 04:15:42;;;;;;;;;;;;;;;-142.75;100.00;76822.25;5034024;28;20382;-69
2022/06/07 04:18:07;;;;;;;;;;;;;;;-142.75;100.00;76818.31;5033483;28;20443;-69
2022/06/07 04:20:33;;;;;;;;;;;;;;;-142.75;100.00;76818.31;5016194;28;20333;-68
2022/06/07 04:22:58;;;;;;;;;;;;;;;-142.75;100.00;76822.25;5033591;28;20004;-69
2022/06/07 04:25:24;;;;;;;;;;;;;;;-142.75;100.00;76824.22;5015931;28;19983;-68
2022/06/07 04:27:50;;;;;;;;;;;;;;;-142.75;100.00;76816.34;5015754;28;20028;-68
2022/06/07 04:30:16;;;;;;;;;;;;;;;-142.75;100.00;76810.44;5033471;28;19925;-68
2022/06/07 04:32:46;;;;;;;;;;;;;;;-142.75;100.00;76808.50;5015971;28;19964;-68
2022/06/07 04:35:11;;;;;;;;;;;;;;;-142.75;100.00;76810.44;5033607;28;20374;-68
2022/06/07 04:37:37;;;;;;;;;;;;;;;-142.75;100.00;76808.50;5015713;28;19940;-68
2022/06/07 04:40:02;;;;;;;;;;;;;;;-142.75;100.00;76804.53;5033280;28;20363;-68
2022/06/07 04:42:28;;;;;;;;;;;;;;;-142.75;100.00;76806.50;5033413;28;19925;-69
2022/06/07 04:44:53;;;;;;;;;;;;;;;-142.75;100.00;76814.38;5015594;28;20399;-68
2022/06/07 04:47:18;;;;;;;;;;;;;;;-142.75;100.00;76810.44;5033461;28;19970;-69
2022/06/07 04:49:43;;;;;;;;;;;;;;;-142.75;100.00;76816.34;5032988;28;20016;-67
2022/06/07 04:52:09;;;;;;;;;;;;;;;-142.75;100.00;76814.38;5033272;28;19924;-68
2022/06/07 04:54:34;;;;;;;;;;;;;;;-142.75;100.00;76804.53;5033181;28;19924;-68
2022/06/07 04:56:59;;;;;;;;;;;;;;;-142.75;100.00;76802.56;5033070;28;19917;-68
2022/06/07 04:59:24;;;;;;;;;;;;;;;-142.75;100.00;76800.63;5032810;28;19936;-68
2022/06/07 05:01:50;;;;;;;;;;;;;;;-142.75;100.00;76804.53;5033082;28;19917;-68
2022/06/07 05:04:15;;;;;;;;;;;;;;;-142.75;100.00;76790.78;5033003;28;19921;-69
2022/06/07 05:06:41;;;;;;;;;;;;;;;-142.75;100.00;76792.75;5032942;28;19917;-68
2022/06/07 05:09:09;;;;;;;;;;;;;;;-142.75;100.00;76786.84;5032546;28;20393;-68
2022/06/07 05:11:35;;;;;;;;;;;;;;;-142.75;100.00;76782.91;5032922;28;19921;-68
2022/06/07 05:14:02;;;;;;;;;;;;;;;-142.75;100.00;76788.81;5032899;28;19924;-71
2022/06/07 05:16:28;;;;;;;;;;;;;;;-142.75;100.00;76786.84;5032912;28;19979;-71
2022/06/07 05:18:54;;;;;;;;;;;;;;;-142.75;100.00;76780.94;5017357;28;20669;-71
2022/06/07 05:21:20;;;;;;;;;;;;;;;-142.75;100.00;76775.03;5013017;28;19917;-69
2022/06/07 05:23:45;;;;;;;;;;;;;;;-142.75;100.00;76771.09;5012752;28;19924;-69
2022/06/07 05:26:15;;;;;;;;;;;;;;;-142.75;100.00;76775.03;4995243;28;19917;-69
2022/06/07 05:28:42;;;;;;;;;;;;;;;-142.75;100.00;76778.97;5012402;28;20315;-70
2022/06/07 05:31:07;;;;;;;;;;;;;;;-142.75;100.00;76782.91;5012756;28;19918;-69
2022/06/07 05:33:32;;;;;;;;;;;;;;;-142.75;100.00;76773.06;4995097;28;20359;-69
2022/06/07 05:35:58;;;;;;;;;;;;;;;-142.75;100.00;76767.16;5012395;28;19918;-70
2022/06/07 05:38:23;;;;;;;;;;;;;;;-142.75;100.00;76757.31;5012240;28;19964;-70
2022/06/07 05:40:49;;;;;;;;;;;;;;;-142.75;100.00;76755.34;5012626;28;19944;-69
2022/06/07 05:43:14;;;;;;;;;;;;;;;-142.75;100.00;76753.38;5012540;28;20417;-70
2022/06/07 05:45:39;;;;;;;;;;;;;;;-142.75;100.00;76751.41;5012443;28;20292;-69
2022/06/07 05:48:05;;;;;;;;;;;;;;;-142.75;100.00;76755.34;5012133;28;19925;-69
2022/06/07 05:50:30;;;;;;;;;;;;;;;-142.75;100.00;76749.44;5012374;28;20307;-69
2022/06/07 05:52:55;;;;;;;;;;;;;;;-142.75;100.00;76747.47;4994810;28;19943;-69
2022/06/07 05:55:20;;;;;;;;;;;;;;;-142.75;100.00;76739.59;4994626;28;19924;-70
2022/06/07 05:57:50;;;;;;;;;;;;;;;-142.75;100.00;76741.56;5012072;28;19924;-69
2022/06/07 06:00:16;;;;;;;;;;;;;;;-142.75;100.00;76741.56;5012167;28;19924;-70
2022/06/07 06:02:41;;;;;;;;;;;;;;;-142.75;100.00;76735.66;5012188;28;19924;-69
2022/06/07 06:05:07;;;;;;;;;;;;;;;-142.75;100.00;76743.53;5011943;28;19921;-68
2022/06/07 06:07:32;;;;;;;;;;;;;;;-142.75;100.00;76739.59;5010976;28;20395;-68
2022/06/07 06:12:41;;;;;;;;;;;;;;;-142.75;100.00;76717.94;5011403;28;19945;-68
2022/06/07 06:15:06;;;;;;;;;;;;;;;-142.75;100.00;76708.09;5011032;28;19921;-68
2022/06/07 06:17:31;;;;;;;;;;;;;;;-142.75;100.00;76698.25;5011138;28;20342;-68
2022/06/07 06:19:57;;;;;;;;;;;;;;;-142.75;100.00;76692.34;5010706;28;20016;-68
2022/06/07 06:22:22;;;;;;;;;;;;;;;-142.75;100.00;76696.28;5010405;28;19917;-68
2022/06/07 06:24:47;;;;;;;;;;;;;;;-142.75;100.00;76700.22;5011005;28;19960;-69
2022/06/07 06:27:12;;;;;;;;;;;;;;;-142.75;100.00;76698.25;5010931;28;19932;-69
2022/06/07 06:29:37;;;;;;;;;;;;;;;-142.75;100.00;76696.28;5010616;28;20272;-68
2022/06/07 06:32:03;;;;;;;;;;;;;;;-142.75;100.00;76684.47;5010888;28;19917;-68
2022/06/07 06:34:29;;;;;;;;;;;;;;;-142.75;100.00;76670.69;5010592;28;19952;-68
2022/06/07 06:36:55;;;;;;;;;;;;;;;-142.75;100.00;76672.66;5010605;28;19921;-68
2022/06/07 06:39:20;;;;;;;;;;;;;;;-142.75;100.00;76668.72;4992726;28;19960;-69
2022/06/07 06:41:47;;;;;;;;;;;;;;;-142.75;100.00;76649.03;5001333;28;19924;-69
2022/06/07 06:44:12;;;;;;;;;;;;;;;-142.75;100.00;76641.16;5010631;28;19965;-69
2022/06/07 06:46:39;;;;;;;;;;;;;;;-142.75;100.00;76633.28;5010686;28;20007;-68
2022/06/07 06:49:05;;;;;;;;;;;;;;;-142.75;100.00;76633.28;5010106;28;19922;-68
2022/06/07 06:51:30;;;;;;;;;;;;;;;-142.75;100.00;76645.09;5010669;28;20012;-71
2022/06/07 06:54:00;;;;;;;;;;;;;;;-142.75;100.00;76641.16;4992676;28;19999;-69
2022/06/07 06:56:25;;;;;;;;;;;;;;;-142.75;100.00;76633.28;5010609;28;19928;-69
2022/06/07 06:58:52;;;;;;;;;;;;;;;-142.75;100.00;76641.16;5010302;28;19922;-68
2022/06/07 07:01:22;;;;;;;;;;;;;;;-142.75;100.00;76643.13;5006483;28;19968;-70
2022/06/07 07:03:48;;;;;;;;;;;;;;;-142.75;100.00;76625.41;5009624;28;19921;-69
2022/06/07 07:06:14;;;;;;;;;;;;;;;-142.75;100.00;76625.41;5028923;28;19917;-69
2022/06/07 07:08:40;;;;;;;;;;;;;;;-142.75;100.00;76611.63;5021469;28;20397;-68
2022/06/07 07:11:08;;;;;;;;;;;;;;;-142.75;100.00;76613.59;5010346;28;19917;-67
2022/06/07 07:13:33;;;;;;;;;;;;;;;-142.75;100.00;76625.41;5010107;28;19968;-71
2022/06/07 07:15:59;;;;;;;;;;;;;;;-142.75;100.00;76625.41;5009964;28;20505;-69
2022/06/07 07:18:24;;;;;;;;;;;;;;;-142.75;100.00;76629.34;5009883;28;20016;-69
2022/06/07 07:20:50;;;;;;;;;;;;;;;-142.75;100.00;76625.41;5010314;28;20461;-69
2022/06/07 07:23:16;;;;;;;;;;;;;;;-142.75;100.00;76619.50;5010138;28;19924;-68
2022/06/07 07:25:41;;;;;;;;;;;;;;;-142.75;100.00;76613.59;5010107;28;20282;-71
2022/06/07 07:28:06;;;;;;;;;;;;;;;-142.75;100.00;76591.94;5009985;28;19921;-71
2022/06/07 07:30:31;;;;;;;;;;;;;;;-142.75;100.00;76578.16;5010163;28;20302;-71
2022/06/07 07:32:57;;;;;;;;;;;;;;;-142.75;100.00;76578.16;5010471;28;19917;-69
2022/06/07 07:35:22;;;;;;;;;;;;;;;-142.75;100.00;76584.06;5011015;28;20019;-69
2022/06/07 07:37:47;;;;;;;;;;;;;;;-142.75;100.00;76582.09;5010842;28;20060;-68
2022/06/07 07:40:13;;;;;;;;;;;;;;;-142.75;100.00;76574.22;4993416;28;19921;-71
2022/06/07 07:42:38;;;;;;;;;;;;;;;-142.75;100.00;76566.34;5011056;28;19918;-71
2022/06/07 07:45:03;;;;;;;;;;;;;;;-142.75;100.00;76558.47;5011073;28;19925;-69
2022/06/07 07:47:29;;;;;;;;;;;;;;;-142.75;100.00;76546.66;4993236;28;19917;-71
2022/06/07 07:49:54;;;;;;;;;;;;;;;-142.75;100.00;76544.69;4993030;28;19921;-70
2022/06/07 07:52:21;;;;;;;;;;;;;;;-142.75;100.00;76546.66;5010906;28;19918;-72
2022/06/07 07:54:46;;;;;;;;;;;;;;;-142.75;100.00;76527.00;5010869;28;19972;-71
2022/06/07 07:57:11;;;;;;;;;;;;;;;-142.75;100.00;76503.38;5010734;28;20393;-72
2022/06/07 07:59:37;;;;;;;;;;;;;;;-142.75;100.00;76505.34;5013522;28;20410;-72
2022/06/07 08:02:02;;;;;;;;;;;;;;;-142.75;100.00;76511.25;5014622;28;20028;-72
2022/06/07 08:04:27;;;;;;;;;;;;;;;-142.75;100.00;76519.13;5013693;28;19929;-72
2022/06/07 08:06:52;;;;;;;;;;;;;;;-142.75;100.00;76519.13;5005333;28;20298;-69
2022/06/07 08:09:18;;;;;;;;;;;;;;;-142.75;100.00;76525.03;5014389;28;19917;-70
2022/06/07 08:11:44;;;;;;;;;;;;;;;-142.75;100.00;76528.97;5012909;28;20021;-70
2022/06/07 08:14:15;;;;;;;;;;;;;;;-142.75;100.00;76527.00;5013919;28;20457;-70
2022/06/07 08:16:41;;;;;;;;;;;;;;;-142.75;100.00;76515.19;5033667;28;19929;-70
2022/06/07 08:19:08;;;;;;;;;;;;;;;-142.75;100.00;76528.97;5033380;28;20007;-70
2022/06/07 08:21:33;;;;;;;;;;;;;;;-142.75;100.00;76521.09;5026892;28;20359;-70
2022/06/07 08:23:59;;;;;;;;;;;;;;;-142.75;100.00;76523.06;5020759;28;19961;-70
2022/06/07 08:26:26;;;;;;;;;;;;;;;-142.75;100.00;76513.22;5014022;28;19925;-68
2022/06/07 08:28:51;;;;;;;;;;;;;;;-142.75;100.00;76523.06;5028186;28;19959;-69
2022/06/07 08:31:20;;;;;;;;;;;;;;;-142.75;100.00;76495.50;5033314;28;20351;-70
2022/06/07 08:39:15;;;;;;;;;;;;;;;-142.75;100.00;76483.69;5022545;28;19971;-69
2022/06/07 08:41:44;;;;;;;;;;;;;;;-142.75;100.00;76485.66;4998215;28;19948;-69
2022/06/07 08:44:15;;;;;;;;;;;;;;;-142.75;100.00;76483.69;5013610;28;19918;-69
2022/06/07 08:46:41;;;;;;;;;;;;;;;-142.75;100.00;76471.88;5013743;28;19988;-69
2022/06/07 08:49:06;;;;;;;;;;;;;;;-142.75;100.00;76450.22;5013727;28;20008;-70
2022/06/07 08:51:50;;;;;;;;;;;;;;;-142.75;100.00;76434.47;5006551;28;19939;-67
2022/06/07 08:54:24;;;;;;;;;;;;;;;-142.75;100.00;76444.31;5033228;28;19943;-70
2022/06/07 08:56:50;;;;;;;;;;;;;;;-142.75;100.00;76440.38;5033068;28;20379;-70
2022/06/07 08:59:17;;;;;;;;;;;;;;;-142.75;100.00;76430.53;5032772;28;19959;-70
2022/06/07 09:01:51;;;;;;;;;;;;;;;-142.75;100.00;76420.69;5033076;28;19923;-70
2022/06/07 09:04:21;;;;;;;;;;;;;;;-142.75;100.00;76434.47;5015250;28;20378;-70
2022/06/07 09:06:50;;;;;;;;;;;;;;;-142.75;100.00;76434.47;5033097;28;19921;-70
2022/06/07 09:09:16;;;;;;;;;;;;;;;-142.75;100.00;76430.53;5032146;28;20304;-70
2022/06/07 09:14:35;;;;;;;;;;;;;;;-142.75;100.00;76412.81;5033266;28;19971;-70
2022/06/07 09:17:04;;;;;;;;;;;;;;;-142.75;100.00;76393.13;5032761;28;19917;-70
2022/06/07 09:19:30;;;;;;;;;;;;;;;-142.75;100.00;76383.28;5032394;28;19956;-70
2022/06/07 09:21:58;;;;;;;;;;;;;;;-142.75;100.00;76373.44;5032673;28;19921;-70
2022/06/07 09:24:31;;;;;;;;;;;;;;;-142.75;100.00;76353.78;5032589;28;19960;-70
2022/06/07 09:27:04;;;;;;;;;;;;;;;-142.75;100.00;76340.00;5014762;28;19917;-70
2022/06/07 09:29:33;;;;;;;;;;;;;;;-142.75;100.00;76314.41;5032285;28;19917;-71
2022/06/07 09:31:58;;;;;;;;;;;;;;;-142.75;100.00;76300.63;5032474;28;19940;-70
2022/06/07 09:34:25;;;;;;;;;;;;;;;-142.75;100.00;76318.34;5032342;28;20390;-71
2022/06/07 09:37:02;;;;;;;;;;;;;;;-142.75;100.00;76310.47;5032679;28;20295;-70
2022/06/07 09:39:30;;;;;;;;;;;;;;;-142.75;100.00;76316.38;5014644;28;20283;-70
2022/06/07 09:42:00;;;;;;;;;;;;;;;-142.75;100.00;76322.28;5014673;28;19917;-70
2022/06/07 09:44:38;;;;;;;;;;;;;;;-142.75;100.00;76347.84;5032167;28;19975;-70
2022/06/07 09:47:14;;;;;;;;;;;;;;;-142.75;100.00;76341.97;5032250;28;19924;-70
2022/06/07 09:49:44;;;;;;;;;;;;;;;-142.75;100.00;76363.59;5031665;28;20400;-70
2022/06/07 09:52:12;;;;;;;;;;;;;;;-142.75;100.00;76369.50;5032181;28;20327;-70
2022/06/07 09:54:40;;;;;;;;;;;;;;;-142.75;100.00;76371.47;5014340;28;19924;-71
2022/06/07 09:57:12;;;;;;;;;;;;;;;-142.75;100.00;76373.44;5031923;28;20048;-70
2022/06/07 09:59:37;;;;;;;;;;;;;;;-142.75;100.00;76363.59;5013913;28;19940;-70
2022/06/07 10:02:19;;;;;;;;;;;;;;;-142.75;100.00;76359.66;5014087;28;20374;-70
2022/06/07 10:04:56;;;;;;;;;;;;;;;-142.75;100.00;76373.44;5031795;28;20010;-70
2022/06/07 10:10:01;;;;;;;;;;;;;;;-142.75;100.00;76363.59;5051090;23;19990;-70
2022/06/07 10:12:30;;;;;;;;;;;;;;;-142.75;100.00;76363.59;5030650;28;19921;-70
2022/06/07 10:15:14;;;;;;;;;;;;;;;-142.75;100.00;76347.84;5050338;28;20302;-70
2022/06/07 10:17:39;;;;;;;;;;;;;;;-142.75;100.00;76343.94;5051517;28;19917;-70
2022/06/07 10:20:04;;;;;;;;;;;;;;;-142.75;100.00;76312.44;5049991;28;19924;-69
2022/06/07 10:22:29;;;;;;;;;;;;;;;-142.75;100.00;76310.47;5050038;28;19921;-71
2022/06/07 10:25:00;;;;;;;;;;;;;;;-142.75;100.00;76318.34;5051560;28;19925;-70
2022/06/07 10:27:29;;;;;;;;;;;;;;;-142.75;100.00;76312.44;5050208;28;19929;-70
2022/06/07 10:30:14;;;;;;;;;;;;;;;-142.75;100.00;76316.38;5051158;28;19959;-70
2022/06/07 10:32:48;;;;;;;;;;;;;;;-142.75;100.00;76314.41;5051315;28;19925;-70
2022/06/07 10:35:31;;;;;;;;;;;;;;;-142.75;100.00;76296.69;5051368;28;20346;-67
2022/06/07 10:38:06;;;;;;;;;;;;;;;-142.75;100.00;76286.84;5051002;28;19920;-70
2022/06/07 10:40:57;;;;;;;;;;;;;;;-142.75;100.00;76280.94;5049969;28;19920;-70
2022/06/07 10:43:25;;;;;;;;;;;;;;;-142.75;100.00;76278.97;5035395;28;19989;-70
2022/06/07 10:45:54;;;;;;;;;;;;;;;-142.75;100.00;76275.03;5051196;28;19924;-70
2022/06/07 10:48:28;;;;;;;;;;;;;;;-142.75;100.00;76259.28;5050882;28;19917;-70
2022/06/07 10:51:01;;;;;;;;;;;;;;;-142.75;100.00;76259.28;5051245;28;20000;-70
2022/06/07 10:53:42;;;;;;;;;;;;;;;-142.75;100.00;76275.03;5051194;28;20298;-70
2022/06/07 10:56:15;;;;;;;;;;;;;;;-142.75;100.00;76275.03;5039014;28;19917;-69
2022/06/07 10:58:45;;;;;;;;;;;;;;;-142.75;100.00;76278.97;5030906;28;19924;-70
2022/06/07 11:01:15;;;;;;;;;;;;;;;-142.75;100.00;76267.16;5031200;28;19917;-71
2022/06/07 11:03:40;;;;;;;;;;;;;;;-142.75;100.00;76241.56;5029869;28;20012;-70
2022/06/07 11:09:20;;;;;;;;;;;;;;;-142.75;100.00;76275.03;5030960;28;19923;-69
2022/06/07 11:11:46;;;;;;;;;;;;;;;-142.75;100.00;76267.16;5031073;28;20000;-67
2022/06/07 11:14:14;;;;;;;;;;;;;;;-142.75;100.00;76208.09;5031001;28;20004;-70
2022/06/07 11:16:49;;;;;;;;;;;;;;;-142.75;100.00;76137.25;5029593;28;20686;-70
2022/06/07 11:19:15;;;;;;;;;;;;;;;-142.75;100.00;76066.41;5029440;28;19979;-69
2022/06/07 11:21:43;;;;;;;;;;;;;;;-142.75;100.00;76062.47;5029670;28;20395;-71
2022/06/07 11:24:14;;;;;;;;;;;;;;;-142.75;100.00;76074.25;5030866;28;20387;-70
2022/06/07 11:26:51;;;;;;;;;;;;;;;-142.75;100.00;76054.59;5030912;28;19917;-70
2022/06/07 11:29:27;;;;;;;;;;;;;;;-142.75;100.00;76056.56;5029268;28;19971;-70
2022/06/07 11:31:53;;;;;;;;;;;;;;;-142.75;100.00;76062.47;5029738;28;19917;-70
2022/06/07 11:34:24;;;;;;;;;;;;;;;-142.75;100.00;76042.78;5033038;28;20028;-70
2022/06/07 11:36:50;;;;;;;;;;;;;;;-142.75;100.00;76042.78;5034701;28;19916;-70
2022/06/07 11:39:19;;;;;;;;;;;;;;;-142.75;100.00;76078.19;5033019;28;19917;-70
2022/06/07 11:41:46;;;;;;;;;;;;;;;-142.75;100.00;76113.63;5034716;28;19924;-70
2022/06/07 11:44:11;;;;;;;;;;;;;;;-142.75;100.00;76129.38;5034484;28;19924;-70
2022/06/07 11:46:38;;;;;;;;;;;;;;;-142.75;100.00;76164.81;5034567;28;20372;-71
2022/06/07 11:49:19;;;;;;;;;;;;;;;-142.75;100.00;76162.84;5034091;28;19921;-71
2022/06/07 11:52:00;;;;;;;;;;;;;;;-142.75;100.00;76176.63;5034411;28;20307;-70
2022/06/07 11:54:29;;;;;;;;;;;;;;;-142.75;100.00;76166.78;5034391;28;19971;-70
2022/06/07 11:57:00;;;;;;;;;;;;;;;-142.75;100.00;76139.22;5034254;28;19964;-70
2022/06/07 11:59:31;;;;;;;;;;;;;;;-142.75;100.00;76125.44;5034141;28;19921;-71
2022/06/07 12:02:00;;;;;;;;;;;;;;;-142.75;100.00;76113.63;5034323;28;19917;-69
2022/06/07 12:04:28;;;;;;;;;;;;;;;-142.75;100.00;76082.13;5034061;28;19968;-70
2022/06/07 12:06:54;;;;;;;;;;;;;;;-142.75;100.00;76076.22;5034116;28;20345;-70
2022/06/07 12:09:19;;;;;;;;;;;;;;;-142.75;100.00;76097.88;5032418;28;19917;-70
2022/06/07 12:11:45;;;;;;;;;;;;;;;-142.75;100.00;76093.94;5034144;28;19924;-70
2022/06/07 12:14:24;;;;;;;;;;;;;;;-142.75;100.00;76109.69;5034116;28;19917;-70
2022/06/07 12:16:55;;;;;;;;;;;;;;;-142.75;100.00;76107.72;5034065;28;19940;-70
2022/06/07 12:19:31;;;;;;;;;;;;;;;-142.75;100.00;76074.25;5033695;28;19948;-70
2022/06/07 12:21:56;;;;;;;;;;;;;;;-142.75;100.00;76074.25;5033829;28;19925;-71
2022/06/07 12:24:23;;;;;;;;;;;;;;;-142.75;100.00;76054.59;5033796;28;20391;-70
2022/06/07 12:26:48;;;;;;;;;;;;;;;-142.75;100.00;76062.47;5033875;28;19917;-70
2022/06/07 12:29:13;;;;;;;;;;;;;;;-142.75;100.00;76052.63;5033233;28;19928;-70
2022/06/07 12:31:44;;;;;;;;;;;;;;;-142.75;100.00;76076.22;5032418;28;19924;-71
2022/06/07 12:34:28;;;;;;;;;;;;;;;-142.75;100.00;76046.72;5033685;28;20306;-70
2022/06/07 12:36:57;;;;;;;;;;;;;;;-142.75;100.00;76007.34;5033364;28;19921;-70
2022/06/07 12:39:24;;;;;;;;;;;;;;;-142.75;100.00;76030.97;5033097;28;19917;-70
2022/06/07 12:41:55;;;;;;;;;;;;;;;-142.75;100.00;75997.50;5031465;28;19917;-69
2022/06/07 12:44:31;;;;;;;;;;;;;;;-142.75;100.00;75952.25;5031844;28;19932;-70